createdAt,value
2022-09-13T00:00:40.166Z,100.00
2022-09-13T00:03:07.236Z,100.00
2022-09-13T00:05:35.324Z,100.00
2022-09-13T00:08:02.085Z,100.00
2022-09-13T00:10:29.032Z,100.00
2022-09-13T00:12:55.511Z,100.00
2022-09-13T00:15:22.078Z,100.00
2022-09-13T00:17:48.649Z,100.00
2022-09-13T00:20:15.070Z,100.00
2022-09-13T00:22:41.510Z,100.00
2022-09-13T00:25:08.327Z,100.00
2022-09-13T00:27:36.349Z,100.00
2022-09-13T00:30:07.937Z,100.00
2022-09-13T00:32:35.566Z,100.00
2022-09-13T00:35:03.624Z,100.00
2022-09-13T00:37:31.220Z,100.00
2022-09-13T00:39:57.630Z,100.00
2022-09-13T00:42:29.769Z,100.00
2022-09-13T00:45:10.706Z,100.00
2022-09-13T00:47:41.723Z,100.00
2022-09-13T00:50:17.433Z,100.00
2022-09-13T00:52:48.290Z,100.00
2022-09-13T00:55:50.037Z,100.00
2022-09-13T00:58:27.032Z,100.00
2022-09-13T01:00:55.978Z,100.00
2022-09-13T01:03:26.211Z,100.00
2022-09-13T01:05:59.063Z,100.00
2022-09-13T01:08:29.323Z,100.00
2022-09-13T01:10:59.941Z,100.00
2022-09-13T01:13:31.928Z,100.00
2022-09-13T01:15:59.746Z,100.00
2022-09-13T01:18:26.882Z,100.00
2022-09-13T01:21:30.276Z,100.00
2022-09-13T01:24:15.320Z,100.00
2022-09-13T01:27:03.553Z,100.00
2022-09-13T01:30:03.890Z,100.00
2022-09-13T01:32:33.246Z,100.00
2022-09-13T01:35:06.083Z,100.00
2022-09-13T01:37:54.348Z,100.00
2022-09-13T01:40:33.695Z,100.00
2022-09-13T01:43:11.863Z,100.00
2022-09-13T01:46:05.470Z,100.00
2022-09-13T01:48:56.096Z,100.00
2022-09-13T01:51:49.322Z,100.00
2022-09-13T01:54:20.057Z,100.00
2022-09-13T01:57:11.869Z,100.00
2022-09-13T01:59:44.396Z,100.00
2022-09-13T02:02:16.570Z,100.00
2022-09-13T02:04:59.114Z,100.00
2022-09-13T02:07:35.820Z,100.00
2022-09-13T02:10:22.837Z,100.00
2022-09-13T02:12:53.138Z,100.00
2022-09-13T02:15:44.911Z,100.00
2022-09-13T02:18:29.818Z,100.00
2022-09-13T02:21:01.923Z,100.00
2022-09-13T02:23:41.055Z,100.00
2022-09-13T02:26:12.391Z,100.00
2022-09-13T02:28:45.529Z,100.00
2022-09-13T02:31:14.584Z,100.00
2022-09-13T02:33:49.853Z,100.00
2022-09-13T02:36:31.242Z,100.00
2022-09-13T02:39:02.439Z,100.00
2022-09-13T02:41:39.495Z,100.00
2022-09-13T02:44:39.469Z,100.00
2022-09-13T02:47:32.530Z,100.00
2022-09-13T02:50:22.653Z,100.00
2022-09-13T02:53:01.712Z,100.00
2022-09-13T02:55:59.790Z,100.00
2022-09-13T02:58:35.654Z,100.00
2022-09-13T03:01:02.202Z,100.00
2022-09-13T03:03:28.984Z,100.00
2022-09-13T03:05:55.449Z,100.00
2022-09-13T03:08:23.709Z,100.00
2022-09-13T03:11:08.389Z,100.00
2022-09-13T03:13:41.316Z,100.00
2022-09-13T03:16:29.093Z,100.00
2022-09-13T03:19:13.301Z,100.00
2022-09-13T03:21:55.431Z,100.00
2022-09-13T03:24:50.433Z,100.00
2022-09-13T03:27:40.439Z,100.00
2022-09-13T03:30:14.222Z,100.00
2022-09-13T03:32:43.719Z,100.00
2022-09-13T03:35:17.545Z,100.00
2022-09-13T03:37:46.291Z,100.00
2022-09-13T03:40:16.611Z,100.00
2022-09-13T03:42:48.972Z,100.00
2022-09-13T03:45:19.272Z,100.00
2022-09-13T03:47:48.416Z,100.00
2022-09-13T03:50:20.761Z,100.00
2022-09-13T03:52:51.068Z,100.00
2022-09-13T03:55:21.827Z,100.00
2022-09-13T03:57:48.329Z,100.00
2022-09-13T04:00:15.250Z,100.00
2022-09-13T04:02:41.787Z,100.00
2022-09-13T04:05:08.293Z,100.00
2022-09-13T04:07:34.712Z,100.00
2022-09-13T04:10:01.319Z,100.00
2022-09-13T04:12:30.916Z,100.00
2022-09-13T04:14:57.753Z,100.00
2022-09-13T04:17:24.216Z,100.00
2022-09-13T04:19:50.624Z,100.00
2022-09-13T04:22:17.109Z,100.00
2022-09-13T04:24:44.242Z,100.00
2022-09-13T04:27:10.651Z,100.00
2022-09-13T04:29:37.081Z,100.00
2022-09-13T04:32:03.891Z,100.00
2022-09-13T04:34:30.293Z,100.00
2022-09-13T04:36:57.097Z,100.00
2022-09-13T04:39:26.444Z,100.00
2022-09-13T04:41:54.798Z,100.00
2022-09-13T04:44:21.871Z,100.00
2022-09-13T04:46:48.971Z,100.00
2022-09-13T04:49:17.001Z,100.00
2022-09-13T04:51:43.866Z,100.00
2022-09-13T04:54:15.302Z,100.00
2022-09-13T04:56:42.528Z,100.00
2022-09-13T04:59:10.689Z,100.00
2022-09-13T05:01:37.448Z,100.00
2022-09-13T05:04:04.514Z,100.00
2022-09-13T05:06:30.940Z,100.00
2022-09-13T05:08:57.719Z,100.00
2022-09-13T05:11:26.847Z,100.00
2022-09-13T05:13:55.339Z,100.00
2022-09-13T05:16:27.873Z,100.00
2022-09-13T05:18:55.595Z,100.00
2022-09-13T05:21:22.034Z,100.00
2022-09-13T05:23:49.801Z,100.00
2022-09-13T05:26:16.838Z,100.00
2022-09-13T05:28:43.454Z,100.00
2022-09-13T05:31:34.656Z,100.00
2022-09-13T05:34:05.076Z,100.00
2022-09-13T05:36:31.771Z,100.00
2022-09-13T05:39:26.003Z,100.00
2022-09-13T05:41:46.056Z,100.00
2022-09-13T05:44:13.721Z,100.00
2022-09-13T05:46:41.588Z,100.00
2022-09-13T05:49:08.163Z,100.00
2022-09-13T05:51:34.606Z,100.00
2022-09-13T05:54:01.044Z,100.00
2022-09-13T05:56:29.930Z,100.00
2022-09-13T05:58:56.572Z,100.00
2022-09-13T06:01:26.109Z,100.00
2022-09-13T06:03:55.935Z,100.00
2022-09-13T06:06:23.447Z,100.00
2022-09-13T06:08:54.700Z,100.00
2022-09-13T06:11:21.534Z,100.00
2022-09-13T06:13:47.961Z,100.00
2022-09-13T06:16:16.610Z,100.00
2022-09-13T06:18:43.856Z,100.00
2022-09-13T06:21:24.677Z,100.00
2022-09-13T06:23:54.507Z,100.00
2022-09-13T06:26:23.821Z,100.00
2022-09-13T06:28:52.515Z,100.00
2022-09-13T06:31:21.484Z,100.00
2022-09-13T06:33:48.194Z,100.00
2022-09-13T06:36:20.086Z,100.00
2022-09-13T06:38:48.951Z,100.00
2022-09-13T06:41:21.992Z,100.00
2022-09-13T06:43:53.412Z,100.00
2022-09-13T06:46:25.149Z,100.00
2022-09-13T06:48:52.740Z,100.00
2022-09-13T06:51:23.110Z,100.00
2022-09-13T06:53:51.684Z,100.00
2022-09-13T06:56:20.358Z,100.00
2022-09-13T06:58:49.313Z,100.00
2022-09-13T07:01:20.579Z,100.00
2022-09-13T07:03:52.774Z,100.00
2022-09-13T07:06:24.945Z,100.00
2022-09-13T07:08:52.607Z,100.00
2022-09-13T07:11:21.541Z,100.00
2022-09-13T07:13:52.527Z,100.00
2022-09-13T07:16:20.817Z,100.00
2022-09-13T07:18:59.109Z,100.00
2022-09-13T07:21:26.992Z,100.00
2022-09-13T07:23:55.285Z,100.00
2022-09-13T07:26:21.978Z,100.00
2022-09-13T07:28:52.150Z,100.00
2022-09-13T07:31:21.466Z,100.00
2022-09-13T07:33:53.162Z,100.00
2022-09-13T07:36:19.844Z,100.00
2022-09-13T07:38:46.308Z,100.00
2022-09-13T07:41:20.613Z,100.00
2022-09-13T07:43:47.709Z,100.00
2022-09-13T07:46:17.833Z,100.00
2022-09-13T07:48:46.033Z,100.00
2022-09-13T07:51:20.856Z,100.00
2022-09-13T07:53:52.627Z,100.00
2022-09-13T07:56:26.109Z,100.00
2022-09-13T07:58:55.079Z,100.00
2022-09-13T08:01:27.324Z,100.00
2022-09-13T08:03:59.409Z,100.00
2022-09-13T08:06:27.783Z,100.00
2022-09-13T08:08:54.941Z,100.00
2022-09-13T08:11:34.103Z,100.00
2022-09-13T08:14:01.500Z,100.00
2022-09-13T08:16:30.632Z,100.00
2022-09-13T08:18:59.890Z,100.00
2022-09-13T08:21:27.099Z,100.00
2022-09-13T08:23:59.706Z,100.00
2022-09-13T08:26:27.956Z,100.00
2022-09-13T08:28:59.819Z,100.00
2022-09-13T08:31:27.175Z,100.00
2022-09-13T08:33:53.784Z,100.00
2022-09-13T08:36:23.779Z,100.00
2022-09-13T08:38:54.134Z,100.00
2022-09-13T08:41:44.363Z,100.00
2022-09-13T08:44:31.077Z,100.00
2022-09-13T08:47:35.324Z,100.00
2022-09-13T08:50:20.807Z,100.00
2022-09-13T08:53:17.894Z,100.00
2022-09-13T08:56:10.481Z,100.00
2022-09-13T08:59:00.006Z,100.00
2022-09-13T09:01:48.418Z,100.00
2022-09-13T09:04:27.379Z,100.00
2022-09-13T09:07:13.769Z,100.00
2022-09-13T09:09:53.182Z,100.00
2022-09-13T09:12:53.157Z,100.00
2022-09-13T09:15:33.677Z,100.00
2022-09-13T09:18:10.531Z,100.00
2022-09-13T09:20:39.230Z,100.00
2022-09-13T09:23:19.103Z,100.00
2022-09-13T09:25:50.777Z,100.00
2022-09-13T09:28:19.027Z,100.00
2022-09-13T09:31:40.994Z,100.00
2022-09-13T09:34:10.492Z,100.00
2022-09-13T09:36:44.768Z,100.00
2022-09-13T09:39:14.098Z,100.00
2022-09-13T09:41:40.673Z,100.00
2022-09-13T09:44:20.511Z,100.00
2022-09-13T09:47:19.127Z,100.00
2022-09-13T09:50:07.221Z,100.00
2022-09-13T09:52:44.601Z,100.00
2022-09-13T09:55:21.145Z,100.00
2022-09-13T09:58:02.398Z,100.00
2022-09-13T10:00:33.054Z,100.00
2022-09-13T10:03:03.524Z,100.00
2022-09-13T10:05:32.395Z,100.00
2022-09-13T10:08:05.267Z,100.00
2022-09-13T10:10:36.708Z,100.00
2022-09-13T10:13:07.618Z,100.00
2022-09-13T10:15:35.768Z,100.00
2022-09-13T10:18:42.332Z,100.00
2022-09-13T10:21:23.679Z,100.00
2022-09-13T10:23:51.008Z,100.00
2022-09-13T10:26:20.802Z,100.00
2022-09-13T10:29:06.961Z,100.00
2022-09-13T10:31:42.929Z,100.00
2022-09-13T10:34:22.444Z,100.00
2022-09-13T10:36:57.497Z,100.00
2022-09-13T10:39:26.163Z,100.00
2022-09-13T10:42:11.065Z,100.00
2022-09-13T10:44:45.108Z,100.00
2022-09-13T10:47:18.891Z,100.00
2022-09-13T10:49:53.147Z,100.00
2022-09-13T10:52:35.948Z,100.00
2022-09-13T10:55:23.911Z,100.00
2022-09-13T10:57:52.305Z,100.00
2022-09-13T11:00:20.261Z,100.00
2022-09-13T11:02:58.858Z,100.00
2022-09-13T11:05:31.828Z,100.00
2022-09-13T11:08:32.053Z,100.00
2022-09-13T11:11:10.815Z,100.00
2022-09-13T11:14:00.734Z,100.00
2022-09-13T11:16:48.648Z,99.13
2022-09-13T11:19:51.350Z,100.00
2022-09-13T11:22:44.448Z,100.00
2022-09-13T11:25:39.164Z,100.00
2022-09-13T11:28:14.897Z,100.00
2022-09-13T11:31:10.285Z,100.00
2022-09-13T11:33:45.977Z,100.00
2022-09-13T11:36:38.302Z,96.48
2022-09-13T11:39:10.031Z,95.96
2022-09-13T11:41:49.268Z,98.87
2022-09-13T11:44:40.779Z,97.30
2022-09-13T11:47:22.914Z,100.00
2022-09-13T11:50:09.940Z,100.00
2022-09-13T11:53:10.716Z,100.00
2022-09-13T11:55:42.589Z,100.00
2022-09-13T11:58:16.307Z,100.00
2022-09-13T12:00:58.506Z,100.00
2022-09-13T12:03:31.235Z,100.00
2022-09-13T12:06:02.939Z,100.00
2022-09-13T12:08:33.116Z,100.00
2022-09-13T12:11:03.735Z,100.00
2022-09-13T12:13:43.795Z,99.55
2022-09-13T12:16:15.071Z,100.00
2022-09-13T12:18:48.624Z,100.00
2022-09-13T12:21:20.936Z,100.00
2022-09-13T12:23:58.268Z,100.00
2022-09-13T12:26:41.136Z,100.00
2022-09-13T12:29:32.211Z,100.00
2022-09-13T12:32:02.362Z,100.00
2022-09-13T12:34:42.140Z,96.88
2022-09-13T12:37:27.440Z,100.00
2022-09-13T12:40:16.052Z,100.00
2022-09-13T12:43:14.555Z,100.00
2022-09-13T12:46:04.045Z,100.00
2022-09-13T12:48:39.705Z,100.00
2022-09-13T12:51:40.143Z,94.25
2022-09-13T12:54:33.878Z,87.50
2022-09-13T12:57:31.260Z,87.20
2022-09-13T13:00:13.022Z,78.28
2022-09-13T13:02:42.730Z,80.56
2022-09-13T13:05:31.841Z,82.21
2022-09-13T13:08:06.487Z,83.28
2022-09-13T13:10:38.674Z,86.05
2022-09-13T13:13:21.010Z,84.08
2022-09-13T13:15:50.111Z,80.40
2022-09-13T13:18:37.124Z,74.07
2022-09-13T13:21:22.219Z,72.40
2022-09-13T13:23:48.911Z,68.02
2022-09-13T13:26:21.490Z,68.35
2022-09-13T13:28:52.054Z,69.87
2022-09-13T13:31:24.915Z,68.95
2022-09-13T13:34:03.381Z,69.47
2022-09-13T13:36:29.926Z,71.16
2022-09-13T13:38:56.896Z,68.99
2022-09-13T13:41:36.626Z,68.20
2022-09-13T13:44:22.936Z,68.93
2022-09-13T13:47:15.320Z,70.66
2022-09-13T13:49:46.057Z,71.31
2022-09-13T13:52:14.094Z,71.30
2022-09-13T13:54:40.473Z,75.17
2022-09-13T13:57:22.209Z,73.09
2022-09-13T14:00:04.365Z,75.73
2022-09-13T14:02:42.813Z,76.73
2022-09-13T14:05:50.103Z,78.38
2022-09-13T14:08:38.127Z,79.79
2022-09-13T14:11:26.119Z,76.77
2022-09-13T14:13:52.497Z,78.54
2022-09-13T14:16:36.724Z,76.50
2022-09-13T14:19:17.497Z,72.33
2022-09-13T14:21:44.937Z,72.78
2022-09-13T14:24:22.737Z,76.35
2022-09-13T14:26:57.999Z,79.12
2022-09-13T14:29:26.258Z,84.38
2022-09-13T14:31:55.327Z,89.65
2022-09-13T14:34:24.949Z,81.87
2022-09-13T14:36:56.552Z,82.47
2022-09-13T14:39:23.877Z,86.18
2022-09-13T14:42:00.297Z,79.95
2022-09-13T14:44:29.149Z,78.54
2022-09-13T14:47:04.384Z,77.69
2022-09-13T14:49:39.877Z,77.91
2022-09-13T14:52:14.771Z,75.31
2022-09-13T14:54:52.667Z,73.62
2022-09-13T14:57:34.528Z,73.99
2022-09-13T15:00:16.006Z,73.54
2022-09-13T15:02:49.953Z,73.62
2022-09-13T15:05:18.932Z,74.44
2022-09-13T15:07:46.366Z,74.11
2022-09-13T15:10:12.934Z,76.73
2022-09-13T15:13:02.181Z,75.48
2022-09-13T15:15:35.391Z,75.86
2022-09-13T15:18:25.556Z,75.61
2022-09-13T15:21:05.410Z,74.59
2022-09-13T15:23:38.852Z,75.81
2022-09-13T15:26:06.459Z,76.75
2022-09-13T15:28:46.839Z,76.31
2022-09-13T15:31:26.530Z,76.10
2022-09-13T15:34:13.518Z,77.71
2022-09-13T15:36:39.935Z,76.51
2022-09-13T15:39:09.317Z,77.57
2022-09-13T15:41:37.747Z,78.81
2022-09-13T15:44:07.397Z,79.05
2022-09-13T15:46:57.598Z,79.60
2022-09-13T15:49:27.125Z,79.25
2022-09-13T15:51:59.638Z,78.31
2022-09-13T15:54:52.049Z,78.79
2022-09-13T15:57:23.211Z,77.61
2022-09-13T15:59:49.707Z,78.87
2022-09-13T16:02:28.481Z,81.67
2022-09-13T16:04:55.766Z,78.83
2022-09-13T16:07:23.912Z,81.66
2022-09-13T16:09:50.764Z,83.32
2022-09-13T16:12:18.942Z,85.40
2022-09-13T16:14:46.086Z,83.26
2022-09-13T16:17:21.151Z,86.59
2022-09-13T16:19:48.148Z,84.19
2022-09-13T16:22:15.297Z,85.30
2022-09-13T16:24:42.340Z,85.70
2022-09-13T16:27:12.195Z,84.49
2022-09-13T16:29:40.462Z,85.69
2022-09-13T16:32:07.377Z,87.11
2022-09-13T16:34:33.820Z,87.44
2022-09-13T16:37:01.017Z,88.29
2022-09-13T16:39:27.535Z,88.19
2022-09-13T16:41:54.022Z,87.48
2022-09-13T16:44:20.450Z,87.48
2022-09-13T16:46:47.039Z,89.02
2022-09-13T16:49:13.546Z,90.14
2022-09-13T16:51:39.984Z,89.83
2022-09-13T16:54:06.518Z,91.55
2022-09-13T16:56:33.118Z,92.94
2022-09-13T16:58:59.585Z,92.89
2022-09-13T17:01:28.798Z,91.68
2022-09-13T17:03:56.079Z,89.31
2022-09-13T17:06:24.407Z,89.44
2022-09-13T17:08:56.725Z,88.29
2022-09-13T17:11:25.796Z,89.25
2022-09-13T17:13:52.688Z,90.45
2022-09-13T17:16:31.027Z,91.36
2022-09-13T17:19:00.236Z,93.17
2022-09-13T17:21:27.695Z,94.13
2022-09-13T17:23:54.883Z,95.74
2022-09-13T17:26:22.451Z,97.25
2022-09-13T17:28:49.143Z,97.16
2022-09-13T17:31:16.878Z,96.08
2022-09-13T17:33:43.357Z,97.83
2022-09-13T17:36:13.497Z,97.29
2022-09-13T17:38:40.835Z,98.63
2022-09-13T17:41:13.073Z,100.00
2022-09-13T18:47:39.970Z,100.00
2022-09-13T18:50:09.114Z,100.00
2022-09-13T18:52:39.209Z,100.00
2022-09-13T18:55:06.112Z,100.00
2022-09-13T18:57:32.546Z,100.00
2022-09-13T18:59:59.452Z,100.00
2022-09-13T19:02:25.948Z,100.00
2022-09-13T19:04:52.529Z,100.00
2022-09-13T19:07:18.924Z,100.00
2022-09-13T19:09:45.373Z,100.00
2022-09-13T19:12:12.008Z,100.00
2022-09-13T19:14:38.529Z,100.00
2022-09-13T19:17:05.020Z,100.00
2022-09-13T19:19:31.959Z,100.00
2022-09-13T19:21:58.523Z,100.00
2022-09-13T19:24:25.524Z,100.00
2022-09-13T19:26:52.774Z,100.00
2022-09-13T19:29:22.879Z,100.00
2022-09-13T19:31:51.392Z,100.00
2022-09-13T19:34:20.390Z,100.00
2022-09-13T19:36:49.361Z,100.00
2022-09-13T19:39:16.237Z,100.00
2022-09-13T19:41:42.683Z,100.00
2022-09-13T19:44:12.635Z,100.00
2022-09-13T19:46:40.555Z,100.00
2022-09-13T19:49:11.843Z,100.00
2022-09-13T19:51:40.235Z,100.00
2022-09-13T19:54:09.710Z,100.00
2022-09-13T19:56:39.226Z,100.00
2022-09-13T19:59:07.894Z,100.00
2022-09-13T20:01:41.083Z,100.00
2022-09-13T20:04:14.331Z,100.00
2022-09-13T20:06:45.695Z,100.00
2022-09-13T20:09:13.907Z,100.00
2022-09-13T20:11:44.876Z,100.00
2022-09-13T20:14:12.740Z,100.00
2022-09-13T20:16:41.175Z,100.00
2022-09-13T20:19:29.509Z,100.00
2022-09-13T20:21:55.604Z,100.00
2022-09-13T20:24:22.825Z,100.00
2022-09-13T20:26:52.260Z,100.00
2022-09-13T20:29:19.640Z,100.00
2022-09-13T20:31:46.586Z,100.00
2022-09-13T20:34:15.070Z,100.00
2022-09-13T20:36:44.124Z,100.00
2022-09-13T20:39:11.065Z,100.00
2022-09-13T20:41:37.464Z,100.00
2022-09-13T20:44:03.862Z,100.00
2022-09-13T20:46:31.656Z,100.00
2022-09-13T20:48:58.392Z,100.00
2022-09-13T20:51:25.448Z,100.00
2022-09-13T20:53:57.410Z,100.00
2022-09-13T20:56:24.823Z,100.00
2022-09-13T20:58:57.247Z,100.00
2022-09-13T21:01:24.908Z,100.00
2022-09-13T21:03:53.523Z,100.00
2022-09-13T21:06:22.142Z,100.00
2022-09-13T21:08:52.177Z,100.00
2022-09-13T21:11:30.050Z,100.00
2022-09-13T21:13:59.584Z,100.00
2022-09-13T21:16:37.523Z,100.00
2022-09-13T21:19:04.577Z,100.00
2022-09-13T21:21:39.315Z,100.00
2022-09-13T21:24:09.637Z,100.00
2022-09-13T21:26:37.844Z,100.00
2022-09-13T21:29:04.243Z,100.00
2022-09-13T21:31:32.752Z,100.00
2022-09-13T21:34:01.389Z,100.00
2022-09-13T21:36:29.290Z,100.00
2022-09-13T21:38:56.348Z,100.00
2022-09-13T21:41:25.193Z,100.00
2022-09-13T21:43:51.642Z,100.00
2022-09-13T21:46:29.959Z,100.00
2022-09-13T21:48:59.465Z,100.00
2022-09-13T21:51:31.149Z,100.00
2022-09-13T21:53:59.417Z,100.00
2022-09-13T21:56:28.232Z,100.00
2022-09-13T21:59:00.398Z,100.00
2022-09-13T22:01:30.774Z,100.00
2022-09-13T22:03:58.317Z,100.00
2022-09-13T22:06:27.351Z,100.00
2022-09-13T22:08:58.093Z,100.00
2022-09-13T22:11:27.597Z,100.00
2022-09-13T22:13:55.497Z,100.00
2022-09-13T22:16:25.092Z,100.00
2022-09-13T22:18:56.942Z,100.00
2022-09-13T22:21:27.272Z,100.00
2022-09-13T22:23:54.107Z,100.00
2022-09-13T22:26:28.342Z,100.00
2022-09-13T22:28:56.628Z,100.00
2022-09-13T22:31:25.725Z,100.00
2022-09-13T22:33:54.642Z,100.00
2022-09-13T22:36:21.047Z,100.00
2022-09-13T22:38:53.046Z,100.00
2022-09-13T22:41:27.407Z,100.00
2022-09-13T22:43:54.365Z,100.00
2022-09-13T22:46:23.946Z,100.00
2022-09-13T22:48:50.895Z,100.00
2022-09-13T22:51:18.562Z,100.00
2022-09-13T22:53:46.608Z,100.00
2022-09-13T22:56:15.571Z,100.00
2022-09-13T22:58:42.461Z,100.00
2022-09-13T23:01:14.582Z,100.00
2022-09-13T23:03:42.651Z,100.00
2022-09-13T23:06:11.029Z,100.00
2022-09-13T23:08:38.309Z,100.00
2022-09-13T23:11:11.716Z,100.00
2022-09-13T23:13:38.276Z,100.00
2022-09-13T23:16:06.597Z,100.00
2022-09-13T23:18:34.212Z,100.00
2022-09-13T23:21:00.660Z,100.00
2022-09-13T23:23:27.595Z,100.00
2022-09-13T23:25:54.047Z,100.00
2022-09-13T23:28:21.258Z,100.00
2022-09-13T23:30:47.672Z,100.00
2022-09-13T23:33:14.130Z,100.00
2022-09-13T23:35:40.822Z,100.00
2022-09-13T23:38:08.539Z,100.00
2022-09-13T23:40:35.980Z,100.00
2022-09-13T23:43:03.247Z,100.00
2022-09-13T23:45:29.906Z,100.00
2022-09-13T23:47:56.332Z,100.00
2022-09-13T23:50:22.797Z,100.00
2022-09-13T23:52:49.344Z,100.00
2022-09-13T23:55:17.860Z,100.00
2022-09-13T23:57:44.308Z,100.00
